createdAt,value
2022-11-07T00:01:33.982Z,99958.97
2022-11-07T00:04:00.459Z,99955.59
2022-11-07T00:06:26.936Z,99949.84
2022-11-07T00:08:55.394Z,99945.66
2022-11-07T00:11:21.828Z,99951.81
2022-11-07T00:13:48.234Z,99950.50
2022-11-07T00:16:14.668Z,99953.09
2022-11-07T00:18:41.092Z,99960.94
2022-11-07T00:21:10.262Z,99949.75
2022-11-07T00:23:39.825Z,99953.53
2022-11-07T00:26:12.064Z,99946.56
2022-11-07T00:28:41.264Z,99933.22
2022-11-07T00:31:08.986Z,99930.19
2022-11-07T00:33:35.494Z,99927.13
2022-11-07T00:36:02.573Z,99934.56
2022-11-07T00:38:29.294Z,99928.22
2022-11-07T00:41:00.126Z,99939.13
2022-11-07T00:43:27.379Z,99937.19
2022-11-07T00:45:54.085Z,99920.09
2022-11-07T00:48:20.833Z,99914.22
2022-11-07T00:50:47.339Z,99913.38
2022-11-07T00:53:14.193Z,99913.25
2022-11-07T00:55:40.840Z,99920.66
2022-11-07T00:58:11.239Z,99908.69
2022-11-07T01:00:40.239Z,99905.31
2022-11-07T01:03:24.938Z,99906.59
2022-11-07T01:06:00.570Z,99907.34
2022-11-07T01:08:27.375Z,99927.25
2022-11-07T01:10:54.676Z,99916.75
2022-11-07T01:13:21.758Z,99911.88
2022-11-07T01:15:48.312Z,99922.13
2022-11-07T01:18:15.298Z,99900.47
2022-11-07T01:20:41.947Z,99897.16
2022-11-07T01:23:09.145Z,99897.16
2022-11-07T01:25:39.629Z,99901.41
2022-11-07T01:28:07.204Z,99894.06
2022-11-07T01:30:33.674Z,99888.25
2022-11-07T01:33:00.107Z,99893.63
2022-11-07T01:35:26.532Z,99899.81
2022-11-07T01:37:52.975Z,99882.75
2022-11-07T01:40:19.567Z,99889.97
2022-11-07T01:42:45.988Z,99886.38
2022-11-07T01:45:41.921Z,99899.69
2022-11-07T01:48:08.353Z,99896.06
2022-11-07T01:50:34.971Z,99897.25
2022-11-07T01:53:01.642Z,99892.47
2022-11-07T01:55:34.915Z,99887.41
2022-11-07T01:58:08.931Z,99889.09
2022-11-07T02:00:36.772Z,99896.47
2022-11-07T02:03:08.261Z,99900.50
2022-11-07T02:05:39.722Z,99901.97
2022-11-07T02:08:08.396Z,99904.81
2022-11-07T02:10:35.777Z,99896.03
2022-11-07T02:13:03.520Z,99908.31
2022-11-07T02:15:30.288Z,99904.50
2022-11-07T02:17:58.423Z,99893.59
2022-11-07T02:20:24.847Z,99918.47
2022-11-07T02:22:57.760Z,99920.13
2022-11-07T02:25:24.590Z,99905.03
2022-11-07T02:27:58.299Z,99918.34
2022-11-07T02:30:29.723Z,99904.03
2022-11-07T02:32:56.770Z,99902.16
2022-11-07T02:36:00.406Z,99895.34
2022-11-07T02:38:32.175Z,99901.72
2022-11-07T02:41:04.235Z,99903.97
2022-11-07T02:43:33.574Z,99903.00
2022-11-07T02:46:05.665Z,99880.81
2022-11-07T02:48:41.198Z,99893.44
2022-11-07T02:51:07.622Z,99899.47
2022-11-07T02:53:34.072Z,99907.88
2022-11-07T02:56:00.475Z,99895.66
2022-11-07T02:58:27.113Z,99908.38
2022-11-07T03:00:53.509Z,99911.03
2022-11-07T03:03:19.936Z,99897.09
2022-11-07T03:05:46.333Z,99909.41
2022-11-07T03:08:12.742Z,99922.22
2022-11-07T03:10:39.164Z,99908.69
2022-11-07T03:13:05.603Z,99906.63
2022-11-07T03:15:31.990Z,99913.63
2022-11-07T03:17:59.544Z,99910.25
2022-11-07T03:20:25.974Z,99909.91
2022-11-07T03:22:52.401Z,99908.44
2022-11-07T03:25:19.227Z,99910.53
2022-11-07T03:27:47.540Z,99910.53
2022-11-07T03:30:13.906Z,99915.38
2022-11-07T03:32:40.306Z,99921.00
2022-11-07T03:35:07.495Z,99920.28
2022-11-07T03:37:33.924Z,99914.78
2022-11-07T03:40:00.407Z,99917.94
2022-11-07T03:42:26.887Z,99916.91
2022-11-07T03:44:53.284Z,99903.94
2022-11-07T03:47:19.657Z,99908.16
2022-11-07T03:49:46.096Z,99904.44
2022-11-07T03:52:12.482Z,99917.47
2022-11-07T03:54:38.912Z,99914.31
2022-11-07T03:57:05.318Z,99913.94
2022-11-07T03:59:31.699Z,99911.38
2022-11-07T04:01:58.220Z,99902.88
2022-11-07T04:04:24.702Z,99907.53
2022-11-07T04:06:51.100Z,99913.06
2022-11-07T04:09:17.492Z,99916.78
2022-11-07T04:12:02.594Z,99899.00
2022-11-07T04:14:47.436Z,99909.00
2022-11-07T04:17:19.857Z,99918.06
2022-11-07T04:19:48.614Z,99918.72
2022-11-07T04:22:16.203Z,99911.25
2022-11-07T04:24:46.028Z,99911.22
2022-11-07T04:27:32.936Z,99915.75
2022-11-07T04:30:18.837Z,99916.09
2022-11-07T04:32:51.326Z,99908.88
2022-11-07T04:35:18.471Z,99916.31
2022-11-07T04:37:45.056Z,99922.41
2022-11-07T04:40:12.160Z,99925.66
2022-11-07T04:42:39.374Z,99930.59
2022-11-07T04:45:06.662Z,99924.72
2022-11-07T04:47:35.349Z,99942.34
2022-11-07T04:50:11.385Z,99934.25
2022-11-07T04:52:37.788Z,99936.78
2022-11-07T04:55:05.441Z,99935.97
2022-11-07T04:57:31.839Z,99940.06
2022-11-07T04:59:58.413Z,99939.81
2022-11-07T05:02:25.511Z,99931.25
2022-11-07T05:04:53.038Z,99947.69
2022-11-07T05:07:20.504Z,99957.72
2022-11-07T05:09:46.957Z,99942.66
2022-11-07T05:12:13.495Z,99962.56
2022-11-07T05:14:39.904Z,99947.09
2022-11-07T05:17:06.315Z,99935.94
2022-11-07T05:19:32.738Z,99943.53
2022-11-07T05:22:17.773Z,99934.50
2022-11-07T05:24:44.178Z,99938.47
2022-11-07T05:27:18.402Z,99938.94
2022-11-07T05:29:45.262Z,99948.09
2022-11-07T05:32:11.676Z,99933.56
2022-11-07T05:34:38.093Z,99951.38
2022-11-07T05:37:10.642Z,99962.56
2022-11-07T05:39:37.394Z,99969.47
2022-11-07T05:42:04.706Z,99976.00
2022-11-07T05:44:31.887Z,99962.00
2022-11-07T05:46:58.690Z,99952.00
2022-11-07T05:49:25.782Z,99962.25
2022-11-07T05:51:53.022Z,99972.84
2022-11-07T05:54:19.899Z,99981.78
2022-11-07T05:56:46.486Z,99978.03
2022-11-07T05:59:13.753Z,99961.78
2022-11-07T06:01:40.263Z,99966.78
2022-11-07T06:04:07.800Z,99968.16
2022-11-07T06:06:34.692Z,99985.59
2022-11-07T06:09:01.098Z,99981.31
2022-11-07T06:11:27.508Z,99984.97
2022-11-07T06:13:54.668Z,99979.63
2022-11-07T06:16:21.244Z,99982.56
2022-11-07T06:18:47.726Z,99997.75
2022-11-07T06:21:14.438Z,100007.09
2022-11-07T06:23:40.857Z,99995.88
2022-11-07T06:26:07.355Z,99997.06
2022-11-07T06:28:34.182Z,100002.28
2022-11-07T06:31:01.465Z,100000.19
2022-11-07T06:33:29.750Z,99987.88
2022-11-07T06:35:56.102Z,100000.81
2022-11-07T06:38:23.951Z,100005.03
2022-11-07T06:40:50.354Z,100007.69
2022-11-07T06:43:19.815Z,100011.59
2022-11-07T06:45:47.788Z,100004.13
2022-11-07T06:48:14.525Z,100032.09
2022-11-07T06:50:41.417Z,100008.72
2022-11-07T06:53:10.598Z,100021.22
2022-11-07T06:55:38.027Z,100017.56
2022-11-07T06:58:05.081Z,100018.28
2022-11-07T07:00:33.339Z,100025.69
2022-11-07T07:02:59.876Z,100028.56
2022-11-07T07:05:27.386Z,100025.78
2022-11-07T07:07:55.489Z,100020.25
2022-11-07T07:10:22.257Z,100022.19
2022-11-07T07:12:48.679Z,100040.66
2022-11-07T07:15:15.117Z,100039.84
2022-11-07T07:17:41.559Z,100050.00
2022-11-07T07:20:08.822Z,100036.09
2022-11-07T07:22:35.778Z,100042.88
2022-11-07T07:25:02.359Z,100057.34
2022-11-07T07:27:28.835Z,100048.34
2022-11-07T07:29:55.249Z,100056.31
2022-11-07T07:32:21.704Z,100052.34
2022-11-07T07:34:48.135Z,100056.69
2022-11-07T07:37:14.615Z,100042.34
2022-11-07T07:39:41.066Z,100047.44
2022-11-07T07:42:07.546Z,100056.59
2022-11-07T07:44:34.457Z,100047.16
2022-11-07T07:47:00.913Z,100058.56
2022-11-07T07:49:27.609Z,100045.53
2022-11-07T07:51:54.046Z,100061.25
2022-11-07T07:54:20.563Z,100054.31
2022-11-07T07:56:47.034Z,100060.47
2022-11-07T07:59:13.594Z,100068.94
2022-11-07T08:01:40.228Z,100058.72
2022-11-07T08:04:06.819Z,100067.53
2022-11-07T08:06:35.285Z,100047.84
2022-11-07T08:09:01.782Z,100051.69
2022-11-07T08:11:28.291Z,100071.03
2022-11-07T08:13:58.496Z,100066.31
2022-11-07T08:16:27.738Z,100071.28
2022-11-07T08:18:54.193Z,100070.44
2022-11-07T08:21:20.657Z,100072.25
2022-11-07T08:23:49.161Z,100056.41
2022-11-07T08:26:15.604Z,100077.41
2022-11-07T08:28:42.015Z,100071.16
2022-11-07T08:31:11.877Z,100080.34
2022-11-07T08:33:38.673Z,100071.28
2022-11-07T08:36:06.776Z,100085.41
2022-11-07T08:38:35.073Z,100089.53
2022-11-07T08:41:01.802Z,100097.03
2022-11-07T08:43:28.276Z,100106.19
2022-11-07T08:45:55.465Z,100110.91
2022-11-07T08:48:22.639Z,100127.00
2022-11-07T08:50:56.542Z,100104.53
2022-11-07T08:53:24.480Z,100108.53
2022-11-07T08:55:51.192Z,100110.13
2022-11-07T08:58:18.946Z,100109.38
2022-11-07T09:00:45.558Z,100126.56
2022-11-07T09:05:58.589Z,100127.63
2022-11-07T09:08:25.165Z,100106.97
2022-11-07T09:10:51.647Z,100116.44
2022-11-07T09:13:19.301Z,100110.38
2022-11-07T09:15:50.599Z,100123.66
2022-11-07T09:18:18.186Z,100118.63
2022-11-07T09:20:44.653Z,100122.09
2022-11-07T09:23:11.120Z,100131.78
2022-11-07T09:25:37.565Z,100116.44
2022-11-07T09:28:04.395Z,100113.50
2022-11-07T09:30:31.658Z,100118.59
2022-11-07T09:32:58.579Z,100130.22
2022-11-07T09:35:25.371Z,100137.31
2022-11-07T09:37:52.578Z,100129.47
2022-11-07T09:40:40.923Z,100136.25
2022-11-07T09:43:22.853Z,100145.78
2022-11-07T09:46:32.312Z,100141.34
2022-11-07T09:49:08.896Z,100149.50
2022-11-07T09:51:42.646Z,100131.84
2022-11-07T09:54:20.471Z,100146.34
2022-11-07T09:56:47.024Z,100146.13
2022-11-07T09:59:22.503Z,100153.44
2022-11-07T10:01:49.354Z,100152.63
2022-11-07T10:04:25.346Z,100166.09
2022-11-07T10:07:28.961Z,100158.91
2022-11-07T10:10:19.168Z,100157.72
2022-11-07T10:13:03.014Z,100164.47
2022-11-07T10:16:12.037Z,100156.00
2022-11-07T10:18:57.336Z,100182.63
2022-11-07T10:21:39.540Z,100172.41
2022-11-07T10:24:31.574Z,100177.41
2022-11-07T10:26:58.425Z,100180.47
2022-11-07T10:29:29.471Z,100179.63
2022-11-07T10:32:25.225Z,100228.19
2022-11-07T10:35:10.474Z,100193.84
2022-11-07T10:37:37.026Z,100194.91
2022-11-07T10:40:19.538Z,100191.28
2022-11-07T10:42:47.931Z,100203.19
2022-11-07T10:45:16.406Z,100206.16
2022-11-07T10:47:43.191Z,100214.47
2022-11-07T10:50:20.956Z,100200.13
2022-11-07T10:52:55.519Z,100210.97
2022-11-07T10:55:22.491Z,100208.66
2022-11-07T10:57:56.335Z,100201.53
2022-11-07T11:00:32.831Z,100219.31
2022-11-07T11:02:59.583Z,100198.88
2022-11-07T11:05:44.014Z,100228.69
2022-11-07T11:08:20.194Z,100208.97
2022-11-07T11:10:47.650Z,100213.50
2022-11-07T11:13:34.173Z,100201.38
2022-11-07T11:16:30.650Z,100191.22
2022-11-07T11:19:02.164Z,100206.69
2022-11-07T11:21:49.546Z,100200.47
2022-11-07T11:24:25.282Z,100202.75
2022-11-07T11:26:53.658Z,100196.13
2022-11-07T11:29:38.187Z,100194.69
2022-11-07T11:32:15.262Z,100218.16
2022-11-07T11:35:19.381Z,100177.50
2022-11-07T11:37:57.941Z,100185.69
2022-11-07T11:40:25.221Z,100180.66
2022-11-07T11:43:17.144Z,100187.94
2022-11-07T11:46:10.672Z,100186.72
2022-11-07T11:49:00.798Z,100188.16
2022-11-07T11:51:49.802Z,100182.50
2022-11-07T11:54:17.411Z,100187.94
2022-11-07T11:56:58.014Z,100189.16
2022-11-07T11:59:43.625Z,100196.91
2022-11-07T12:02:47.533Z,100192.34
2022-11-07T12:05:22.910Z,100197.66
2022-11-07T12:08:21.568Z,100202.84
2022-11-07T12:11:05.454Z,100198.84
2022-11-07T12:13:53.246Z,100191.25
2022-11-07T12:16:45.097Z,100226.25
2022-11-07T12:19:46.174Z,100208.38
2022-11-07T12:22:24.997Z,100207.22
2022-11-07T12:24:57.336Z,100208.47
2022-11-07T12:27:42.587Z,100202.38
2022-11-07T12:30:30.939Z,100222.72
2022-11-07T12:33:03.373Z,100216.44
2022-11-07T12:35:41.554Z,100217.44
2022-11-07T12:38:07.885Z,100211.25
2022-11-07T12:41:08.431Z,100219.78
2022-11-07T12:43:47.844Z,100215.25
2022-11-07T12:46:23.363Z,100216.66
2022-11-07T12:49:02.309Z,100210.13
2022-11-07T12:51:28.770Z,100218.09
2022-11-07T12:54:00.517Z,100210.19
2022-11-07T12:56:38.348Z,100209.47
2022-11-07T12:59:30.438Z,100202.97
2022-11-07T13:02:06.146Z,100213.44
2022-11-07T13:04:38.302Z,100206.34
2022-11-07T13:07:16.762Z,100211.91
2022-11-07T13:10:02.016Z,100209.63
2022-11-07T13:12:42.230Z,100210.84
2022-11-07T13:15:11.953Z,100204.41
2022-11-07T13:17:44.293Z,100210.19
2022-11-07T13:20:27.474Z,100208.91
2022-11-07T13:22:59.068Z,100206.09
2022-11-07T13:25:33.636Z,100207.56
2022-11-07T13:28:25.970Z,100211.19
2022-11-07T13:31:01.116Z,100209.50
2022-11-07T13:33:32.824Z,100209.03
2022-11-07T13:36:15.311Z,100215.53
2022-11-07T13:38:50.182Z,100214.44
2022-11-07T13:41:16.917Z,100212.16
2022-11-07T13:43:56.189Z,100226.44
2022-11-07T13:46:30.587Z,100212.16
2022-11-07T13:49:10.936Z,100228.03
2022-11-07T13:51:45.561Z,100228.13
2022-11-07T13:54:28.914Z,100227.16
2022-11-07T13:57:23.272Z,100223.81
2022-11-07T13:59:58.094Z,100239.03
2022-11-07T14:02:28.069Z,100226.69
2022-11-07T14:05:16.304Z,100234.19
2022-11-07T14:07:49.323Z,100226.19
2022-11-07T14:10:28.011Z,100241.31
2022-11-07T14:13:03.837Z,100248.97
2022-11-07T14:15:30.750Z,100230.78
2022-11-07T14:17:57.388Z,100242.16
2022-11-07T14:20:23.914Z,100241.97
2022-11-07T14:22:57.009Z,100243.28
2022-11-07T14:25:32.652Z,100234.94
2022-11-07T14:28:01.587Z,100268.09
2022-11-07T14:30:30.495Z,100244.50
2022-11-07T14:33:02.155Z,100254.03
2022-11-07T14:35:33.956Z,100248.97
2022-11-07T14:38:12.321Z,100241.69
2022-11-07T14:40:42.071Z,100246.53
2022-11-07T14:43:15.536Z,100256.00
2022-11-07T14:48:30.925Z,100258.66
2022-11-07T14:50:59.043Z,100254.53
2022-11-07T14:53:32.374Z,100260.69
2022-11-07T14:56:03.757Z,100261.09
2022-11-07T14:58:30.834Z,100257.94
2022-11-07T15:01:11.278Z,100260.34
2022-11-07T15:03:50.286Z,100252.34
2022-11-07T15:06:28.612Z,100264.81
2022-11-07T15:09:01.215Z,100258.03
2022-11-07T15:11:31.773Z,100259.34
2022-11-07T15:14:00.037Z,100255.25
2022-11-07T15:16:34.167Z,100258.16
2022-11-07T15:19:03.806Z,100265.44
2022-11-07T15:21:32.691Z,100262.78
2022-11-07T15:24:00.791Z,100263.47
2022-11-07T15:26:32.219Z,100259.84
2022-11-07T15:29:15.070Z,100262.50
2022-11-07T15:31:48.250Z,100266.16
2022-11-07T15:34:33.706Z,100268.09
2022-11-07T15:37:17.667Z,100272.94
2022-11-07T15:39:44.246Z,100267.34
2022-11-07T15:42:10.737Z,100265.91
2022-11-07T15:44:38.989Z,100273.16
2022-11-07T15:47:06.071Z,100268.44
2022-11-07T15:49:34.119Z,100289.63
2022-11-07T15:52:01.487Z,100287.72
2022-11-07T15:54:28.115Z,100276.78
2022-11-07T15:57:01.438Z,100290.59
2022-11-07T15:59:32.580Z,100289.25
2022-11-07T16:01:59.469Z,100282.97
2022-11-07T16:04:25.905Z,100286.25
2022-11-07T16:06:52.982Z,100284.28
2022-11-07T16:09:22.001Z,100282.97
2022-11-07T16:11:48.854Z,100288.41
2022-11-07T16:17:07.195Z,100295.19
2022-11-07T16:19:33.650Z,100293.72
2022-11-07T16:22:00.113Z,100295.28
2022-11-07T16:24:26.594Z,100277.50
2022-11-07T16:26:53.054Z,100291.69
2022-11-07T16:29:19.460Z,100298.34
2022-11-07T16:31:45.882Z,100298.69
2022-11-07T16:34:12.658Z,100293.00
2022-11-07T16:36:39.827Z,100310.75
2022-11-07T16:39:10.470Z,100307.75
2022-11-07T16:41:36.970Z,100293.47
2022-11-07T16:44:03.547Z,100297.19
2022-11-07T16:46:35.624Z,100311.34
2022-11-07T16:49:27.373Z,100314.94
2022-11-07T16:51:53.799Z,100308.25
2022-11-07T16:54:20.212Z,100312.19
2022-11-07T16:56:52.871Z,100329.69
2022-11-07T16:59:20.970Z,100336.25
2022-11-07T17:01:47.517Z,100345.28
2022-11-07T17:04:14.539Z,100359.75
2022-11-07T17:06:46.262Z,100384.97
2022-11-07T17:09:19.305Z,100380.28
2022-11-07T17:11:46.490Z,100401.56
2022-11-07T17:14:12.974Z,100402.78
2022-11-07T17:16:43.857Z,100407.25
2022-11-07T17:19:12.232Z,100423.03
2022-11-07T17:21:43.714Z,100419.00
2022-11-07T17:24:10.414Z,100421.59
2022-11-07T17:26:38.709Z,100439.66
2022-11-07T17:29:06.528Z,100446.88
2022-11-07T17:31:32.937Z,100455.31
2022-11-07T17:33:59.444Z,100468.59
2022-11-07T17:36:32.077Z,100466.91
2022-11-07T17:39:05.729Z,100474.78
2022-11-07T17:41:32.131Z,100459.47
2022-11-07T17:43:59.827Z,100454.38
2022-11-07T17:46:30.027Z,100454.81
2022-11-07T17:48:59.802Z,100451.00
2022-11-07T17:51:27.228Z,100451.19
2022-11-07T17:53:55.112Z,100457.03
2022-11-07T17:56:27.118Z,100446.56
2022-11-07T17:58:56.136Z,100447.41
2022-11-07T18:01:25.405Z,100440.47
2022-11-07T18:03:54.558Z,100443.13
2022-11-07T18:06:23.420Z,100442.56
2022-11-07T18:08:54.869Z,100436.31
2022-11-07T18:11:25.498Z,100446.50
2022-11-07T18:13:56.696Z,100436.84
2022-11-07T18:16:28.739Z,100436.41
2022-11-07T18:18:56.672Z,100436.09
2022-11-07T18:21:23.214Z,100433.53
2022-11-07T18:23:49.701Z,100433.97
2022-11-07T18:26:25.296Z,100438.19
2022-11-07T18:28:53.594Z,100437.09
2022-11-07T18:31:22.504Z,100433.47
2022-11-07T18:33:52.498Z,100421.13
2022-11-07T18:36:21.227Z,100430.06
2022-11-07T18:38:48.434Z,100426.63
2022-11-07T18:41:24.953Z,100412.97
2022-11-07T18:43:53.717Z,100413.34
2022-11-07T18:46:20.751Z,100413.44
2022-11-07T18:48:47.266Z,100411.16
2022-11-07T18:51:22.215Z,100416.59
2022-11-07T18:53:50.024Z,100414.25
2022-11-07T18:56:17.198Z,100413.41
2022-11-07T18:58:45.097Z,100416.84
2022-11-07T19:01:14.572Z,100417.00
2022-11-07T19:03:42.080Z,100412.31
2022-11-07T19:06:11.066Z,100418.44
2022-11-07T19:08:40.150Z,100407.72
2022-11-07T19:11:12.535Z,100408.03
2022-11-07T19:13:42.697Z,100400.44
2022-11-07T19:16:11.248Z,100404.06
2022-11-07T19:18:38.162Z,100412.97
2022-11-07T19:21:05.585Z,100415.75
2022-11-07T19:23:35.356Z,100409.94
2022-11-07T19:26:04.359Z,100421.47
2022-11-07T19:28:31.484Z,100420.91
2022-11-07T19:30:58.019Z,100417.00
2022-11-07T19:33:24.514Z,100418.13
2022-11-07T19:35:59.190Z,100421.94
2022-11-07T19:38:25.846Z,100427.72
2022-11-07T19:40:52.370Z,100419.06
2022-11-07T19:43:18.984Z,100428.63
2022-11-07T19:45:45.662Z,100410.41
2022-11-07T19:48:12.284Z,100427.38
2022-11-07T19:50:41.621Z,100428.47
2022-11-07T19:53:08.601Z,100415.47
2022-11-07T19:55:38.388Z,100419.09
2022-11-07T19:58:04.845Z,100429.09
2022-11-07T20:00:31.416Z,100422.31
2022-11-07T20:02:58.372Z,100422.94
2022-11-07T20:05:25.123Z,100429.63
2022-11-07T20:07:58.156Z,100435.06
2022-11-07T20:10:27.661Z,100449.31
2022-11-07T20:12:54.752Z,100449.22
2022-11-07T20:15:21.339Z,100455.59
2022-11-07T20:17:47.763Z,100437.59
2022-11-07T20:20:14.573Z,100447.34
2022-11-07T20:22:46.497Z,100455.78
2022-11-07T20:25:13.987Z,100455.38
2022-11-07T20:27:40.575Z,100463.78
2022-11-07T20:30:07.817Z,100457.66
2022-11-07T20:32:34.268Z,100457.59
2022-11-07T20:35:00.768Z,100467.81
2022-11-07T20:37:27.199Z,100469.88
2022-11-07T20:39:53.681Z,100484.34
2022-11-07T20:42:20.256Z,100490.28
2022-11-07T20:44:48.046Z,100483.81
2022-11-07T20:47:14.575Z,100495.28
2022-11-07T20:49:41.511Z,100480.50
2022-11-07T20:52:08.650Z,100496.69
2022-11-07T20:54:36.492Z,100496.84
2022-11-07T20:57:03.719Z,100499.50
2022-11-07T20:59:31.552Z,100493.88
2022-11-07T21:02:02.983Z,100494.31
2022-11-07T21:04:44.435Z,100493.28
2022-11-07T21:07:19.953Z,100495.38
2022-11-07T21:09:46.618Z,100496.84
2022-11-07T21:12:13.195Z,100489.22
2022-11-07T21:14:42.145Z,100490.06
2022-11-07T21:17:09.877Z,100484.09
2022-11-07T21:19:36.806Z,100501.53
2022-11-07T21:22:04.326Z,100493.44
2022-11-07T21:24:31.692Z,100487.34
2022-11-07T21:26:58.581Z,100499.19
2022-11-07T21:29:29.203Z,100493.97
2022-11-07T21:31:56.506Z,100492.16
2022-11-07T21:34:22.937Z,100491.53
2022-11-07T21:36:49.358Z,100497.25
2022-11-07T21:39:16.266Z,100478.78
2022-11-07T21:41:42.824Z,100480.78
2022-11-07T21:44:11.237Z,100488.66
2022-11-07T21:46:37.785Z,100491.94
2022-11-07T21:49:06.181Z,100478.94
2022-11-07T21:51:34.636Z,100479.38
2022-11-07T21:54:02.415Z,100474.91
2022-11-07T21:56:33.446Z,100467.69
2022-11-07T21:59:02.604Z,100469.19
2022-11-07T22:01:33.091Z,100455.75
2022-11-07T22:04:06.784Z,100450.44
2022-11-07T22:06:37.520Z,100453.63
2022-11-07T22:09:05.759Z,100452.88
2022-11-07T22:11:32.197Z,100448.50
2022-11-07T22:13:59.122Z,100464.69
2022-11-07T22:16:25.640Z,100440.59
2022-11-07T22:18:52.312Z,100446.25
2022-11-07T22:21:21.602Z,100436.91
2022-11-07T22:23:48.630Z,100446.41
2022-11-07T22:26:19.163Z,100444.59
2022-11-07T22:28:46.585Z,100455.91
2022-11-07T22:31:18.216Z,100451.94
2022-11-07T22:33:46.894Z,100459.00
2022-11-07T22:36:13.889Z,100461.53
2022-11-07T22:38:40.550Z,100462.38
2022-11-07T22:41:13.788Z,100475.19
2022-11-07T22:43:40.229Z,100481.50
2022-11-07T22:46:08.944Z,100473.03
2022-11-07T22:48:35.612Z,100467.94
2022-11-07T22:51:10.196Z,100470.06
2022-11-07T22:53:37.096Z,100471.25
2022-11-07T22:56:11.963Z,100491.97
2022-11-07T22:58:39.127Z,100486.22
2022-11-07T23:01:06.714Z,100498.78
2022-11-07T23:03:33.496Z,100506.03
2022-11-07T23:06:04.485Z,100506.03
2022-11-07T23:08:33.541Z,100504.34
2022-11-07T23:14:00.408Z,100558.75
2022-11-07T23:16:38.673Z,100558.94
2022-11-07T23:19:06.266Z,100562.56
2022-11-07T23:21:34.477Z,100554.47
2022-11-07T23:24:01.566Z,100536.09
2022-11-07T23:26:35.953Z,100540.56
2022-11-07T23:29:14.933Z,100534.59
2022-11-07T23:31:43.329Z,100535.03
2022-11-07T23:34:09.721Z,100552.28
2022-11-07T23:36:36.391Z,100572.78
2022-11-07T23:39:07.405Z,100587.44
2022-11-07T23:41:34.611Z,100586.28
2022-11-07T23:44:01.547Z,100583.63
2022-11-07T23:46:46.281Z,100604.91
2022-11-07T23:49:31.502Z,100612.09
2022-11-07T23:51:57.922Z,100610.75
2022-11-07T23:54:42.879Z,100595.97
2022-11-07T23:57:09.341Z,100605.94
2022-11-07T23:59:54.430Z,100598.50
